sensor_id;sensor_type;location;lat;lon;timestamp;temperature;humidity
15178;DHT22;7689;53.612;-2.416;2022-10-14T00:01:52;10.60;99.90
15178;DHT22;7689;53.612;-2.416;2022-10-14T00:04:18;10.70;99.90
15178;DHT22;7689;53.612;-2.416;2022-10-14T00:06:43;10.70;99.90
15178;DHT22;7689;53.612;-2.416;2022-10-14T00:09:09;10.70;99.90
15178;DHT22;7689;53.612;-2.416;2022-10-14T00:11:36;10.80;99.90
15178;DHT22;7689;53.612;-2.416;2022-10-14T00:14:05;10.80;99.90
15178;DHT22;7689;53.612;-2.416;2022-10-14T00:16:34;10.90;99.90
15178;DHT22;7689;53.612;-2.416;2022-10-14T00:19:01;10.90;99.90
15178;DHT22;7689;53.612;-2.416;2022-10-14T00:21:28;10.90;99.90
15178;DHT22;7689;53.612;-2.416;2022-10-14T00:23:55;10.90;99.90
15178;DHT22;7689;53.612;-2.416;2022-10-14T00:26:26;10.90;99.90
15178;DHT22;7689;53.612;-2.416;2022-10-14T00:28:52;11.00;99.90
15178;DHT22;7689;53.612;-2.416;2022-10-14T00:31:18;11.00;99.90
15178;DHT22;7689;53.612;-2.416;2022-10-14T00:33:44;11.00;99.90
15178;DHT22;7689;53.612;-2.416;2022-10-14T00:36:12;11.10;99.90
15178;DHT22;7689;53.612;-2.416;2022-10-14T00:38:38;11.20;99.90
15178;DHT22;7689;53.612;-2.416;2022-10-14T00:41:05;11.10;99.90
15178;DHT22;7689;53.612;-2.416;2022-10-14T00:43:55;10.90;99.90
15178;DHT22;7689;53.612;-2.416;2022-10-14T00:46:23;10.80;99.90
15178;DHT22;7689;53.612;-2.416;2022-10-14T00:48:49;10.80;99.90
15178;DHT22;7689;53.612;-2.416;2022-10-14T00:51:16;10.80;99.90
15178;DHT22;7689;53.612;-2.416;2022-10-14T00:53:42;12.30;99.90
15178;DHT22;7689;53.612;-2.416;2022-10-14T00:56:09;10.80;99.90
15178;DHT22;7689;53.612;-2.416;2022-10-14T00:58:36;10.80;99.90
15178;DHT22;7689;53.612;-2.416;2022-10-14T01:01:02;10.90;99.90
15178;DHT22;7689;53.612;-2.416;2022-10-14T01:03:28;10.80;99.90
15178;DHT22;7689;53.612;-2.416;2022-10-14T01:06:00;10.90;99.90
15178;DHT22;7689;53.612;-2.416;2022-10-14T01:08:38;11.00;99.90
15178;DHT22;7689;53.612;-2.416;2022-10-14T01:13:40;11.00;99.90
15178;DHT22;7689;53.612;-2.416;2022-10-14T01:21:41;11.00;99.90
15178;DHT22;7689;53.612;-2.416;2022-10-14T01:32:41;11.20;99.90
15178;DHT22;7689;53.612;-2.416;2022-10-14T01:35:12;11.10;99.90
15178;DHT22;7689;53.612;-2.416;2022-10-14T01:37:46;11.00;99.90
15178;DHT22;7689;53.612;-2.416;2022-10-14T01:40:20;11.00;99.90
15178;DHT22;7689;53.612;-2.416;2022-10-14T01:42:47;11.00;99.90
15178;DHT22;7689;53.612;-2.416;2022-10-14T01:45:18;11.10;99.90
15178;DHT22;7689;53.612;-2.416;2022-10-14T01:47:47;11.10;99.90
15178;DHT22;7689;53.612;-2.416;2022-10-14T01:50:16;11.20;99.90
15178;DHT22;7689;53.612;-2.416;2022-10-14T01:52:56;11.30;99.90
15178;DHT22;7689;53.612;-2.416;2022-10-14T01:55:26;11.30;99.90
15178;DHT22;7689;53.612;-2.416;2022-10-14T01:57:55;11.30;99.90
15178;DHT22;7689;53.612;-2.416;2022-10-14T02:00:21;11.30;99.90
15178;DHT22;7689;53.612;-2.416;2022-10-14T02:02:47;11.20;99.90
15178;DHT22;7689;53.612;-2.416;2022-10-14T02:05:21;11.20;99.90
15178;DHT22;7689;53.612;-2.416;2022-10-14T02:07:50;11.20;99.90
15178;DHT22;7689;53.612;-2.416;2022-10-14T02:10:50;11.20;99.90
15178;DHT22;7689;53.612;-2.416;2022-10-14T02:13:33;11.30;99.90
15178;DHT22;7689;53.612;-2.416;2022-10-14T02:18:48;11.20;99.90
15178;DHT22;7689;53.612;-2.416;2022-10-14T02:21:22;11.30;99.90
15178;DHT22;7689;53.612;-2.416;2022-10-14T02:24:00;11.20;99.90
15178;DHT22;7689;53.612;-2.416;2022-10-14T02:26:28;11.20;99.90
15178;DHT22;7689;53.612;-2.416;2022-10-14T02:28:55;11.30;99.90
15178;DHT22;7689;53.612;-2.416;2022-10-14T02:31:22;11.40;99.90
15178;DHT22;7689;53.612;-2.416;2022-10-14T02:33:52;11.30;99.90
15178;DHT22;7689;53.612;-2.416;2022-10-14T02:36:20;11.30;99.90
15178;DHT22;7689;53.612;-2.416;2022-10-14T02:38:47;11.30;99.90
15178;DHT22;7689;53.612;-2.416;2022-10-14T02:41:16;11.30;99.90
15178;DHT22;7689;53.612;-2.416;2022-10-14T02:43:44;11.30;99.90
15178;DHT22;7689;53.612;-2.416;2022-10-14T02:46:10;11.30;99.90
15178;DHT22;7689;53.612;-2.416;2022-10-14T02:48:36;11.30;99.90
15178;DHT22;7689;53.612;-2.416;2022-10-14T02:51:02;11.30;99.90
15178;DHT22;7689;53.612;-2.416;2022-10-14T02:53:27;11.40;99.90
15178;DHT22;7689;53.612;-2.416;2022-10-14T02:55:53;11.40;99.90
15178;DHT22;7689;53.612;-2.416;2022-10-14T02:58:18;11.30;99.90
15178;DHT22;7689;53.612;-2.416;2022-10-14T03:00:44;11.30;99.90
15178;DHT22;7689;53.612;-2.416;2022-10-14T03:03:10;11.30;99.90
15178;DHT22;7689;53.612;-2.416;2022-10-14T03:05:35;11.30;99.90
15178;DHT22;7689;53.612;-2.416;2022-10-14T03:08:01;11.30;99.90
15178;DHT22;7689;53.612;-2.416;2022-10-14T03:10:26;11.30;99.90
15178;DHT22;7689;53.612;-2.416;2022-10-14T03:12:52;11.40;99.90
15178;DHT22;7689;53.612;-2.416;2022-10-14T03:15:18;11.40;99.90
15178;DHT22;7689;53.612;-2.416;2022-10-14T03:17:43;11.50;99.90
15178;DHT22;7689;53.612;-2.416;2022-10-14T03:20:10;11.50;99.90
15178;DHT22;7689;53.612;-2.416;2022-10-14T03:22:35;11.50;99.90
15178;DHT22;7689;53.612;-2.416;2022-10-14T03:25:01;11.50;99.90
15178;DHT22;7689;53.612;-2.416;2022-10-14T03:27:27;11.60;99.90
15178;DHT22;7689;53.612;-2.416;2022-10-14T03:29:53;11.60;99.90
15178;DHT22;7689;53.612;-2.416;2022-10-14T03:32:18;11.60;99.90
15178;DHT22;7689;53.612;-2.416;2022-10-14T03:34:44;11.60;99.90
15178;DHT22;7689;53.612;-2.416;2022-10-14T03:37:10;11.60;99.90
15178;DHT22;7689;53.612;-2.416;2022-10-14T03:39:35;11.60;99.90
15178;DHT22;7689;53.612;-2.416;2022-10-14T03:42:02;11.50;99.90
15178;DHT22;7689;53.612;-2.416;2022-10-14T03:44:28;11.50;99.90
15178;DHT22;7689;53.612;-2.416;2022-10-14T03:46:53;11.50;99.90
15178;DHT22;7689;53.612;-2.416;2022-10-14T03:49:19;11.60;99.90
15178;DHT22;7689;53.612;-2.416;2022-10-14T03:51:44;11.50;99.90
15178;DHT22;7689;53.612;-2.416;2022-10-14T03:54:10;11.50;99.90
15178;DHT22;7689;53.612;-2.416;2022-10-14T03:56:36;11.50;99.90
15178;DHT22;7689;53.612;-2.416;2022-10-14T03:59:01;11.60;99.90
15178;DHT22;7689;53.612;-2.416;2022-10-14T04:01:27;11.50;99.90
15178;DHT22;7689;53.612;-2.416;2022-10-14T04:03:52;11.70;99.90
15178;DHT22;7689;53.612;-2.416;2022-10-14T04:06:18;11.60;99.90
15178;DHT22;7689;53.612;-2.416;2022-10-14T04:08:44;11.60;99.90
15178;DHT22;7689;53.612;-2.416;2022-10-14T04:11:09;11.60;99.90
15178;DHT22;7689;53.612;-2.416;2022-10-14T04:13:35;11.60;99.90
15178;DHT22;7689;53.612;-2.416;2022-10-14T04:16:08;11.60;99.90
15178;DHT22;7689;53.612;-2.416;2022-10-14T04:18:35;11.70;99.90
15178;DHT22;7689;53.612;-2.416;2022-10-14T04:21:02;11.60;99.90
15178;DHT22;7689;53.612;-2.416;2022-10-14T04:23:28;11.60;99.90
15178;DHT22;7689;53.612;-2.416;2022-10-14T04:25:54;11.60;99.90
15178;DHT22;7689;53.612;-2.416;2022-10-14T04:28:19;11.60;99.90
15178;DHT22;7689;53.612;-2.416;2022-10-14T04:30:45;11.50;99.90
15178;DHT22;7689;53.612;-2.416;2022-10-14T04:33:11;11.40;99.90
15178;DHT22;7689;53.612;-2.416;2022-10-14T04:35:37;11.50;99.90
15178;DHT22;7689;53.612;-2.416;2022-10-14T04:38:03;11.40;99.90
15178;DHT22;7689;53.612;-2.416;2022-10-14T04:40:28;11.50;99.90
15178;DHT22;7689;53.612;-2.416;2022-10-14T04:42:56;11.50;99.90
15178;DHT22;7689;53.612;-2.416;2022-10-14T04:45:22;11.50;99.90
15178;DHT22;7689;53.612;-2.416;2022-10-14T04:47:48;11.60;99.90
15178;DHT22;7689;53.612;-2.416;2022-10-14T04:50:14;11.60;99.90
15178;DHT22;7689;53.612;-2.416;2022-10-14T04:52:40;11.50;99.90
15178;DHT22;7689;53.612;-2.416;2022-10-14T04:57:36;11.50;99.90
15178;DHT22;7689;53.612;-2.416;2022-10-14T05:00:04;11.50;99.90
15178;DHT22;7689;53.612;-2.416;2022-10-14T05:02:30;11.60;99.90
15178;DHT22;7689;53.612;-2.416;2022-10-14T05:04:55;11.50;99.90
15178;DHT22;7689;53.612;-2.416;2022-10-14T05:07:21;11.50;99.90
15178;DHT22;7689;53.612;-2.416;2022-10-14T05:09:47;11.60;99.90
15178;DHT22;7689;53.612;-2.416;2022-10-14T05:12:13;11.60;99.90
15178;DHT22;7689;53.612;-2.416;2022-10-14T05:14:39;11.60;99.90
15178;DHT22;7689;53.612;-2.416;2022-10-14T05:17:05;11.50;99.90
15178;DHT22;7689;53.612;-2.416;2022-10-14T05:19:30;11.50;99.90
15178;DHT22;7689;53.612;-2.416;2022-10-14T05:21:56;11.50;99.90
15178;DHT22;7689;53.612;-2.416;2022-10-14T05:24:22;11.50;99.90
15178;DHT22;7689;53.612;-2.416;2022-10-14T05:26:47;11.50;99.90
15178;DHT22;7689;53.612;-2.416;2022-10-14T05:29:13;11.50;99.90
15178;DHT22;7689;53.612;-2.416;2022-10-14T05:31:39;11.50;99.90
15178;DHT22;7689;53.612;-2.416;2022-10-14T05:34:05;11.50;99.90
15178;DHT22;7689;53.612;-2.416;2022-10-14T05:36:31;11.50;99.90
15178;DHT22;7689;53.612;-2.416;2022-10-14T05:38:56;11.60;99.90
15178;DHT22;7689;53.612;-2.416;2022-10-14T05:41:26;11.50;99.90
15178;DHT22;7689;53.612;-2.416;2022-10-14T05:43:52;11.40;99.90
15178;DHT22;7689;53.612;-2.416;2022-10-14T05:46:18;11.40;99.90
15178;DHT22;7689;53.612;-2.416;2022-10-14T05:48:43;11.40;99.90
15178;DHT22;7689;53.612;-2.416;2022-10-14T05:51:09;11.30;99.90
15178;DHT22;7689;53.612;-2.416;2022-10-14T05:53:35;11.40;99.90
15178;DHT22;7689;53.612;-2.416;2022-10-14T05:56:04;11.40;99.90
15178;DHT22;7689;53.612;-2.416;2022-10-14T05:58:31;11.40;99.90
15178;DHT22;7689;53.612;-2.416;2022-10-14T06:01:04;11.50;99.90
15178;DHT22;7689;53.612;-2.416;2022-10-14T06:03:30;11.50;99.90
15178;DHT22;7689;53.612;-2.416;2022-10-14T06:05:56;11.50;99.90
15178;DHT22;7689;53.612;-2.416;2022-10-14T06:08:23;11.30;99.90
15178;DHT22;7689;53.612;-2.416;2022-10-14T06:10:50;11.60;99.90
15178;DHT22;7689;53.612;-2.416;2022-10-14T06:13:15;11.70;99.90
15178;DHT22;7689;53.612;-2.416;2022-10-14T06:15:41;11.60;99.90
15178;DHT22;7689;53.612;-2.416;2022-10-14T06:18:07;11.60;99.90
15178;DHT22;7689;53.612;-2.416;2022-10-14T06:20:33;11.60;99.90
15178;DHT22;7689;53.612;-2.416;2022-10-14T06:22:59;11.70;99.90
15178;DHT22;7689;53.612;-2.416;2022-10-14T06:25:26;11.70;99.90
15178;DHT22;7689;53.612;-2.416;2022-10-14T06:27:51;11.70;99.90
15178;DHT22;7689;53.612;-2.416;2022-10-14T06:30:17;11.70;99.90
15178;DHT22;7689;53.612;-2.416;2022-10-14T06:32:42;11.80;99.90
15178;DHT22;7689;53.612;-2.416;2022-10-14T06:35:09;11.70;99.90
15178;DHT22;7689;53.612;-2.416;2022-10-14T06:37:36;11.60;99.90
15178;DHT22;7689;53.612;-2.416;2022-10-14T06:40:02;11.60;99.90
15178;DHT22;7689;53.612;-2.416;2022-10-14T06:42:28;11.60;99.90
15178;DHT22;7689;53.612;-2.416;2022-10-14T06:44:53;11.60;99.90
15178;DHT22;7689;53.612;-2.416;2022-10-14T06:47:19;11.60;99.90
15178;DHT22;7689;53.612;-2.416;2022-10-14T06:49:45;11.60;99.90
15178;DHT22;7689;53.612;-2.416;2022-10-14T06:52:10;11.60;99.90
15178;DHT22;7689;53.612;-2.416;2022-10-14T06:54:36;11.60;99.90
15178;DHT22;7689;53.612;-2.416;2022-10-14T06:57:02;11.60;99.90
15178;DHT22;7689;53.612;-2.416;2022-10-14T06:59:27;11.60;99.90
15178;DHT22;7689;53.612;-2.416;2022-10-14T07:01:54;11.60;99.90
15178;DHT22;7689;53.612;-2.416;2022-10-14T07:04:20;11.60;99.90
15178;DHT22;7689;53.612;-2.416;2022-10-14T07:06:45;11.60;99.90
15178;DHT22;7689;53.612;-2.416;2022-10-14T07:09:11;11.50;99.90
15178;DHT22;7689;53.612;-2.416;2022-10-14T07:11:37;11.50;99.90
15178;DHT22;7689;53.612;-2.416;2022-10-14T07:14:02;11.50;99.90
15178;DHT22;7689;53.612;-2.416;2022-10-14T07:16:28;11.50;99.90
15178;DHT22;7689;53.612;-2.416;2022-10-14T07:18:54;11.60;99.90
15178;DHT22;7689;53.612;-2.416;2022-10-14T07:21:19;11.60;99.90
15178;DHT22;7689;53.612;-2.416;2022-10-14T07:23:45;11.60;99.90
15178;DHT22;7689;53.612;-2.416;2022-10-14T07:26:11;11.60;99.90
15178;DHT22;7689;53.612;-2.416;2022-10-14T07:28:37;11.60;99.90
15178;DHT22;7689;53.612;-2.416;2022-10-14T07:31:05;11.60;99.90
15178;DHT22;7689;53.612;-2.416;2022-10-14T07:33:33;11.60;99.90
15178;DHT22;7689;53.612;-2.416;2022-10-14T07:36:08;11.70;99.90
15178;DHT22;7689;53.612;-2.416;2022-10-14T07:38:34;11.80;99.90
15178;DHT22;7689;53.612;-2.416;2022-10-14T07:41:12;11.60;99.90
15178;DHT22;7689;53.612;-2.416;2022-10-14T07:43:52;11.80;99.90
15178;DHT22;7689;53.612;-2.416;2022-10-14T07:46:20;11.80;99.90
15178;DHT22;7689;53.612;-2.416;2022-10-14T07:49:17;11.90;99.90
15178;DHT22;7689;53.612;-2.416;2022-10-14T07:51:44;12.00;99.90
15178;DHT22;7689;53.612;-2.416;2022-10-14T07:54:20;12.00;99.90
15178;DHT22;7689;53.612;-2.416;2022-10-14T07:56:47;12.00;99.90
15178;DHT22;7689;53.612;-2.416;2022-10-14T07:59:16;12.10;99.90
15178;DHT22;7689;53.612;-2.416;2022-10-14T08:01:48;12.10;99.90
15178;DHT22;7689;53.612;-2.416;2022-10-14T08:04:15;12.10;99.90
15178;DHT22;7689;53.612;-2.416;2022-10-14T08:06:41;12.10;99.90
15178;DHT22;7689;53.612;-2.416;2022-10-14T08:09:08;12.20;99.90
15178;DHT22;7689;53.612;-2.416;2022-10-14T08:11:34;12.20;99.90
15178;DHT22;7689;53.612;-2.416;2022-10-14T08:14:00;12.20;99.90
15178;DHT22;7689;53.612;-2.416;2022-10-14T08:16:28;12.20;99.90
15178;DHT22;7689;53.612;-2.416;2022-10-14T08:18:56;12.10;99.90
15178;DHT22;7689;53.612;-2.416;2022-10-14T08:21:23;12.20;99.90
15178;DHT22;7689;53.612;-2.416;2022-10-14T08:23:49;12.20;99.90
15178;DHT22;7689;53.612;-2.416;2022-10-14T08:28:54;12.20;99.90
15178;DHT22;7689;53.612;-2.416;2022-10-14T08:31:20;12.30;99.90
15178;DHT22;7689;53.612;-2.416;2022-10-14T08:33:46;12.40;99.90
15178;DHT22;7689;53.612;-2.416;2022-10-14T08:36:12;12.50;99.90
15178;DHT22;7689;53.612;-2.416;2022-10-14T08:38:38;12.50;99.90
15178;DHT22;7689;53.612;-2.416;2022-10-14T08:46:51;12.70;99.90
15178;DHT22;7689;53.612;-2.416;2022-10-14T08:49:47;12.80;99.90
15178;DHT22;7689;53.612;-2.416;2022-10-14T08:57:56;12.80;99.90
15178;DHT22;7689;53.612;-2.416;2022-10-14T09:00:23;12.70;99.90
15178;DHT22;7689;53.612;-2.416;2022-10-14T09:02:50;12.90;99.90
15178;DHT22;7689;53.612;-2.416;2022-10-14T09:05:25;13.00;99.90
15178;DHT22;7689;53.612;-2.416;2022-10-14T09:07:55;13.10;99.90
15178;DHT22;7689;53.612;-2.416;2022-10-14T09:10:35;13.20;99.90
15178;DHT22;7689;53.612;-2.416;2022-10-14T09:16:16;13.40;99.90
15178;DHT22;7689;53.612;-2.416;2022-10-14T09:18:48;13.50;99.90
15178;DHT22;7689;53.612;-2.416;2022-10-14T09:21:33;13.50;99.90
15178;DHT22;7689;53.612;-2.416;2022-10-14T09:24:19;13.50;99.90
15178;DHT22;7689;53.612;-2.416;2022-10-14T09:26:48;13.60;99.90
15178;DHT22;7689;53.612;-2.416;2022-10-14T09:31:49;13.90;99.90
15178;DHT22;7689;53.612;-2.416;2022-10-14T09:34:18;14.00;99.90
15178;DHT22;7689;53.612;-2.416;2022-10-14T09:36:46;14.00;99.90
15178;DHT22;7689;53.612;-2.416;2022-10-14T09:39:13;14.20;99.90
15178;DHT22;7689;53.612;-2.416;2022-10-14T09:41:39;14.30;99.90
15178;DHT22;7689;53.612;-2.416;2022-10-14T09:44:24;14.50;99.90
15178;DHT22;7689;53.612;-2.416;2022-10-14T09:46:58;14.70;99.90
15178;DHT22;7689;53.612;-2.416;2022-10-14T09:49:39;14.90;99.90
15178;DHT22;7689;53.612;-2.416;2022-10-14T09:52:07;14.80;99.90
15178;DHT22;7689;53.612;-2.416;2022-10-14T09:54:44;14.60;99.90
15178;DHT22;7689;53.612;-2.416;2022-10-14T09:57:17;14.60;99.90
15178;DHT22;7689;53.612;-2.416;2022-10-14T09:59:54;14.60;99.90
15178;DHT22;7689;53.612;-2.416;2022-10-14T10:02:41;14.60;99.90
15178;DHT22;7689;53.612;-2.416;2022-10-14T10:05:17;14.60;99.90
15178;DHT22;7689;53.612;-2.416;2022-10-14T10:08:32;14.50;99.90
15178;DHT22;7689;53.612;-2.416;2022-10-14T10:11:00;14.60;99.90
15178;DHT22;7689;53.612;-2.416;2022-10-14T10:13:43;14.80;99.90
15178;DHT22;7689;53.612;-2.416;2022-10-14T10:16:30;15.00;99.90
15178;DHT22;7689;53.612;-2.416;2022-10-14T10:18:56;15.10;99.90
15178;DHT22;7689;53.612;-2.416;2022-10-14T10:21:26;15.10;99.90
15178;DHT22;7689;53.612;-2.416;2022-10-14T10:23:59;15.10;99.90
15178;DHT22;7689;53.612;-2.416;2022-10-14T10:26:31;15.10;99.90
15178;DHT22;7689;53.612;-2.416;2022-10-14T10:29:00;14.90;99.90
15178;DHT22;7689;53.612;-2.416;2022-10-14T10:37:01;14.90;99.90
15178;DHT22;7689;53.612;-2.416;2022-10-14T10:47:50;14.70;99.90
15178;DHT22;7689;53.612;-2.416;2022-10-14T10:56:07;14.60;99.90
15178;DHT22;7689;53.612;-2.416;2022-10-14T10:59:03;14.60;99.90
15178;DHT22;7689;53.612;-2.416;2022-10-14T11:04:54;14.80;99.90
15178;DHT22;7689;53.612;-2.416;2022-10-14T11:07:21;14.90;99.90
15178;DHT22;7689;53.612;-2.416;2022-10-14T11:10:39;14.70;99.90
15178;DHT22;7689;53.612;-2.416;2022-10-14T11:16:11;14.50;99.90
15178;DHT22;7689;53.612;-2.416;2022-10-14T11:21:28;14.50;99.90
15178;DHT22;7689;53.612;-2.416;2022-10-14T11:40:51;14.40;99.90
15178;DHT22;7689;53.612;-2.416;2022-10-14T11:43:21;14.50;99.90
15178;DHT22;7689;53.612;-2.416;2022-10-14T11:46:03;14.50;99.90
15178;DHT22;7689;53.612;-2.416;2022-10-14T11:53:44;14.40;99.90
15178;DHT22;7689;53.612;-2.416;2022-10-14T11:59:01;14.00;99.90
15178;DHT22;7689;53.612;-2.416;2022-10-14T12:01:31;14.00;99.90
15178;DHT22;7689;53.612;-2.416;2022-10-14T12:04:09;13.90;99.90
15178;DHT22;7689;53.612;-2.416;2022-10-14T12:06:42;13.80;99.90
15178;DHT22;7689;53.612;-2.416;2022-10-14T12:11:53;13.60;99.90
15178;DHT22;7689;53.612;-2.416;2022-10-14T12:16:54;13.40;99.90
15178;DHT22;7689;53.612;-2.416;2022-10-14T12:19:27;13.30;99.90
15178;DHT22;7689;53.612;-2.416;2022-10-14T12:24:42;13.30;99.90
15178;DHT22;7689;53.612;-2.416;2022-10-14T12:27:13;13.40;99.90
15178;DHT22;7689;53.612;-2.416;2022-10-14T12:29:45;13.60;99.90
15178;DHT22;7689;53.612;-2.416;2022-10-14T12:34:52;13.90;99.90
15178;DHT22;7689;53.612;-2.416;2022-10-14T12:42:29;14.10;99.90
15178;DHT22;7689;53.612;-2.416;2022-10-14T12:44:59;14.10;99.90
15178;DHT22;7689;53.612;-2.416;2022-10-14T12:47:35;14.10;99.90
15178;DHT22;7689;53.612;-2.416;2022-10-14T12:52:39;14.20;99.90
15178;DHT22;7689;53.612;-2.416;2022-10-14T12:55:15;14.00;99.90
15178;DHT22;7689;53.612;-2.416;2022-10-14T12:57:42;13.90;99.90
15178;DHT22;7689;53.612;-2.416;2022-10-14T13:02:46;13.50;99.90
15178;DHT22;7689;53.612;-2.416;2022-10-14T13:05:31;13.40;99.90
15178;DHT22;7689;53.612;-2.416;2022-10-14T13:11:08;13.30;99.90
15178;DHT22;7689;53.612;-2.416;2022-10-14T13:16:10;13.20;99.90
15178;DHT22;7689;53.612;-2.416;2022-10-14T13:19:03;13.10;99.90
15178;DHT22;7689;53.612;-2.416;2022-10-14T13:21:50;13.10;99.90
15178;DHT22;7689;53.612;-2.416;2022-10-14T13:24:36;13.00;99.90
15178;DHT22;7689;53.612;-2.416;2022-10-14T13:27:18;13.00;99.90
15178;DHT22;7689;53.612;-2.416;2022-10-14T13:37:45;13.00;99.90
15178;DHT22;7689;53.612;-2.416;2022-10-14T13:40:29;13.00;99.90
15178;DHT22;7689;53.612;-2.416;2022-10-14T13:43:00;13.00;99.90
15178;DHT22;7689;53.612;-2.416;2022-10-14T13:45:37;12.60;99.90
15178;DHT22;7689;53.612;-2.416;2022-10-14T13:48:04;13.20;99.90
15178;DHT22;7689;53.612;-2.416;2022-10-14T13:50:35;13.30;99.90
15178;DHT22;7689;53.612;-2.416;2022-10-14T13:53:05;13.30;99.90
15178;DHT22;7689;53.612;-2.416;2022-10-14T13:55:31;13.40;99.90
15178;DHT22;7689;53.612;-2.416;2022-10-14T13:58:13;13.50;99.90
15178;DHT22;7689;53.612;-2.416;2022-10-14T14:03:37;13.60;99.90
15178;DHT22;7689;53.612;-2.416;2022-10-14T14:06:13;13.60;99.90
15178;DHT22;7689;53.612;-2.416;2022-10-14T14:08:54;13.60;99.90
15178;DHT22;7689;53.612;-2.416;2022-10-14T14:11:29;13.50;99.90
15178;DHT22;7689;53.612;-2.416;2022-10-14T14:16:29;13.60;99.90
15178;DHT22;7689;53.612;-2.416;2022-10-14T14:18:55;13.60;99.90
15178;DHT22;7689;53.612;-2.416;2022-10-14T14:21:22;13.60;99.90
15178;DHT22;7689;53.612;-2.416;2022-10-14T14:23:59;13.60;99.90
15178;DHT22;7689;53.612;-2.416;2022-10-14T14:26:33;13.60;99.90
15178;DHT22;7689;53.612;-2.416;2022-10-14T14:29:18;13.60;99.90
15178;DHT22;7689;53.612;-2.416;2022-10-14T14:31:45;13.70;99.90
15178;DHT22;7689;53.612;-2.416;2022-10-14T14:34:19;13.70;99.90
15178;DHT22;7689;53.612;-2.416;2022-10-14T14:36:45;13.70;99.90
15178;DHT22;7689;53.612;-2.416;2022-10-14T14:39:26;13.60;99.90
15178;DHT22;7689;53.612;-2.416;2022-10-14T14:41:54;13.60;99.90
15178;DHT22;7689;53.612;-2.416;2022-10-14T14:44:24;13.60;99.90
15178;DHT22;7689;53.612;-2.416;2022-10-14T14:46:51;13.60;99.90
15178;DHT22;7689;53.612;-2.416;2022-10-14T14:49:37;13.60;99.90
15178;DHT22;7689;53.612;-2.416;2022-10-14T14:52:04;13.60;99.90
15178;DHT22;7689;53.612;-2.416;2022-10-14T14:54:30;13.50;99.90
15178;DHT22;7689;53.612;-2.416;2022-10-14T15:02:06;13.50;99.90
15178;DHT22;7689;53.612;-2.416;2022-10-14T15:04:35;13.40;99.90
15178;DHT22;7689;53.612;-2.416;2022-10-14T15:07:13;13.40;99.90
15178;DHT22;7689;53.612;-2.416;2022-10-14T15:09:47;13.40;99.90
15178;DHT22;7689;53.612;-2.416;2022-10-14T15:12:28;13.50;99.90
15178;DHT22;7689;53.612;-2.416;2022-10-14T15:14:59;13.40;99.90
15178;DHT22;7689;53.612;-2.416;2022-10-14T15:17:35;13.40;99.90
15178;DHT22;7689;53.612;-2.416;2022-10-14T15:22:38;13.40;99.90
15178;DHT22;7689;53.612;-2.416;2022-10-14T15:30:20;13.40;99.90
15178;DHT22;7689;53.612;-2.416;2022-10-14T15:32:50;13.30;99.90
15178;DHT22;7689;53.612;-2.416;2022-10-14T15:35:19;13.30;99.90
15178;DHT22;7689;53.612;-2.416;2022-10-14T15:37:45;13.30;99.90
15178;DHT22;7689;53.612;-2.416;2022-10-14T15:40:13;13.30;99.90
15178;DHT22;7689;53.612;-2.416;2022-10-14T15:42:40;13.40;99.90
15178;DHT22;7689;53.612;-2.416;2022-10-14T15:45:06;13.30;99.90
15178;DHT22;7689;53.612;-2.416;2022-10-14T15:47:32;13.20;99.90
15178;DHT22;7689;53.612;-2.416;2022-10-14T15:49:58;13.20;99.90
15178;DHT22;7689;53.612;-2.416;2022-10-14T15:52:24;13.10;99.90
15178;DHT22;7689;53.612;-2.416;2022-10-14T15:54:49;13.00;99.90
15178;DHT22;7689;53.612;-2.416;2022-10-14T15:57:15;13.00;99.90
15178;DHT22;7689;53.612;-2.416;2022-10-14T15:59:41;13.00;99.90
15178;DHT22;7689;53.612;-2.416;2022-10-14T16:02:16;13.00;99.90
15178;DHT22;7689;53.612;-2.416;2022-10-14T16:04:44;13.00;99.90
15178;DHT22;7689;53.612;-2.416;2022-10-14T16:07:13;13.00;99.90
15178;DHT22;7689;53.612;-2.416;2022-10-14T16:09:39;12.90;99.90
15178;DHT22;7689;53.612;-2.416;2022-10-14T16:12:07;12.80;99.90
15178;DHT22;7689;53.612;-2.416;2022-10-14T16:14:36;12.90;99.90
15178;DHT22;7689;53.612;-2.416;2022-10-14T16:17:02;12.80;99.90
15178;DHT22;7689;53.612;-2.416;2022-10-14T16:19:27;12.90;99.90
15178;DHT22;7689;53.612;-2.416;2022-10-14T16:21:53;13.00;99.90
15178;DHT22;7689;53.612;-2.416;2022-10-14T16:24:21;13.00;99.90
15178;DHT22;7689;53.612;-2.416;2022-10-14T16:26:50;13.00;99.90
15178;DHT22;7689;53.612;-2.416;2022-10-14T16:29:17;12.90;99.90
15178;DHT22;7689;53.612;-2.416;2022-10-14T16:31:46;12.90;99.90
15178;DHT22;7689;53.612;-2.416;2022-10-14T16:34:18;12.80;99.90
15178;DHT22;7689;53.612;-2.416;2022-10-14T16:36:45;12.80;99.90
15178;DHT22;7689;53.612;-2.416;2022-10-14T16:39:11;12.80;99.90
15178;DHT22;7689;53.612;-2.416;2022-10-14T16:41:37;12.80;99.90
15178;DHT22;7689;53.612;-2.416;2022-10-14T16:44:04;12.70;99.90
15178;DHT22;7689;53.612;-2.416;2022-10-14T16:46:30;12.70;99.90
15178;DHT22;7689;53.612;-2.416;2022-10-14T16:49:14;12.70;99.90
15178;DHT22;7689;53.612;-2.416;2022-10-14T16:51:43;12.70;99.90
15178;DHT22;7689;53.612;-2.416;2022-10-14T16:54:09;12.60;99.90
15178;DHT22;7689;53.612;-2.416;2022-10-14T16:56:35;13.50;99.90
15178;DHT22;7689;53.612;-2.416;2022-10-14T16:59:20;12.60;99.90
15178;DHT22;7689;53.612;-2.416;2022-10-14T17:01:47;12.50;99.90
15178;DHT22;7689;53.612;-2.416;2022-10-14T17:04:13;12.50;99.90
15178;DHT22;7689;53.612;-2.416;2022-10-14T17:06:39;12.40;99.90
15178;DHT22;7689;53.612;-2.416;2022-10-14T17:09:05;12.50;99.90
15178;DHT22;7689;53.612;-2.416;2022-10-14T17:11:32;12.40;99.90
15178;DHT22;7689;53.612;-2.416;2022-10-14T17:13:58;12.40;99.90
15178;DHT22;7689;53.612;-2.416;2022-10-14T17:16:26;12.40;99.90
15178;DHT22;7689;53.612;-2.416;2022-10-14T17:18:55;12.40;99.90
15178;DHT22;7689;53.612;-2.416;2022-10-14T17:21:21;12.40;99.90
15178;DHT22;7689;53.612;-2.416;2022-10-14T17:23:47;12.30;99.90
15178;DHT22;7689;53.612;-2.416;2022-10-14T17:26:15;12.30;99.90
15178;DHT22;7689;53.612;-2.416;2022-10-14T17:28:43;12.20;99.90
15178;DHT22;7689;53.612;-2.416;2022-10-14T17:31:18;12.10;99.90
15178;DHT22;7689;53.612;-2.416;2022-10-14T17:33:45;12.00;99.90
15178;DHT22;7689;53.612;-2.416;2022-10-14T17:36:25;11.90;99.90
15178;DHT22;7689;53.612;-2.416;2022-10-14T17:38:56;11.80;99.90
15178;DHT22;7689;53.612;-2.416;2022-10-14T17:41:23;11.90;99.90
15178;DHT22;7689;53.612;-2.416;2022-10-14T17:43:51;11.80;99.90
15178;DHT22;7689;53.612;-2.416;2022-10-14T17:46:18;11.70;99.90
15178;DHT22;7689;53.612;-2.416;2022-10-14T17:48:49;11.60;99.90
15178;DHT22;7689;53.612;-2.416;2022-10-14T17:51:15;11.60;99.90
15178;DHT22;7689;53.612;-2.416;2022-10-14T17:53:41;11.60;99.90
15178;DHT22;7689;53.612;-2.416;2022-10-14T17:56:11;11.50;99.90
15178;DHT22;7689;53.612;-2.416;2022-10-14T17:58:37;11.50;99.90
15178;DHT22;7689;53.612;-2.416;2022-10-14T18:01:14;11.60;99.90
15178;DHT22;7689;53.612;-2.416;2022-10-14T18:03:42;11.50;99.90
15178;DHT22;7689;53.612;-2.416;2022-10-14T18:06:13;11.40;99.90
15178;DHT22;7689;53.612;-2.416;2022-10-14T18:08:41;11.30;99.90
15178;DHT22;7689;53.612;-2.416;2022-10-14T18:11:08;11.30;99.90
15178;DHT22;7689;53.612;-2.416;2022-10-14T18:13:35;11.40;99.90